Aeroporto :
LOGIN :

Iscrizione | Disclaimer

   EN    FR    IT 

 










Sommario :    VFR   VFR Marginale   IFR   IFR Intensivo   IFR Molto Intensivo
Visibilità : 
Base nubi : 
>= 8 km
>= 3000ft
5 / 8 km
1000 / 3000 ft
1500m / 5 km
500 / 1000 ft
800 / 1500m
200 / 500 ft
< 800m
< 200 ft
Simboli :   Temporali  Nebbia  Neve Forte  Precipitazioni Forti  Vento > 20 kt
SIGMETs :   Varie  Temporali  Ghiacco  Turbolenza  Onda orograficha  Ceneri Vulcaniche






- Altitudine del aeroporto : 1768 ft


LEHC - Huesca Pirineos

ULTIMO METAR :
  • 080700Z AUTO VRB01KT CAVOK 10/08 Q1025

METARs OBSOLETI :
  • 080630Z AUTO VRB02KT CAVOK 08/07 Q1025
  • 080600Z AUTO VRB02KT 9999 SCT058 BKN070 08/07 Q1025
  • 080530Z AUTO 01002KT 9999 BKN066 08/06 Q1025
  • 080500Z AUTO VRB02KT 9999 BKN059 07/06 Q1025
  • 080430Z AUTO 04004KT 9999 FEW043 07/06 Q1025

TAF TAF LEHC
Valido dal 08 a 03 ore il 09 a 03 ore UTC


080200Z 0803/0903 VRB04KT 9999 SCT040 TX19/0812Z TN08/0806Z
PROB30
TEMPO 0803/0810 4000 SHRA FEW020TCU
BECMG 0820/0822 09008KT



MetMap, La meteo Aeronautica in un colpo d'occhio ! - Copyright ORBIFLY Dicembre 2007 - Disclaimer

ORBIFLY MET'MAP TEAM :

Programmazione e sviluppo : Alexandra Zaïnal
Concezione : Baudouin d'Aumeries
Aiuto per la programmazione : Marc-Olivier Méhu
Supporto tecnico e logistico : Manuel Goepfert
Aiuto per la traduzione : Arnaldo La Scala

Contatto : metmap@orbifly.com




FONTI E CREDITI :

   NOAA